createdAt,value
2023-09-26T00:02:05.955Z,102235.66
2023-09-26T00:06:53.266Z,102291.09
2023-09-26T00:11:43.186Z,102305.13
2023-09-26T00:16:30.444Z,102309.59
2023-09-26T00:21:17.724Z,102286.56
2023-09-26T00:26:05.267Z,102308.50
2023-09-26T00:30:55.141Z,102255.63
2023-09-26T00:35:42.404Z,102280.28
2023-09-26T00:40:29.609Z,102311.66
2023-09-26T00:45:17.042Z,102314.34
2023-09-26T00:50:08.649Z,102277.78
2023-09-26T00:54:56.361Z,102133.72
2023-09-26T00:59:43.958Z,102324.78
2023-09-26T01:04:31.315Z,102318.75
2023-09-26T01:09:21.323Z,102243.53
2023-09-26T01:14:08.905Z,102300.81
2023-09-26T01:18:56.226Z,102311.41
2023-09-26T01:23:46.190Z,102245.03
2023-09-26T01:28:37.231Z,102285.03
2023-09-26T01:33:24.662Z,102264.94
2023-09-26T01:38:12.081Z,102201.59
2023-09-26T01:42:59.596Z,102215.41
2023-09-26T01:47:50.488Z,102257.47
2023-09-26T01:52:37.820Z,102192.09
2023-09-26T01:57:25.118Z,102240.41
2023-09-26T02:02:13.038Z,102228.44
2023-09-26T02:07:03.194Z,102204.94
2023-09-26T02:11:50.627Z,102117.34
2023-09-26T02:16:38.105Z,102199.03
2023-09-26T02:21:55.615Z,102164.84
2023-09-26T02:26:45.623Z,102234.47
2023-09-26T02:31:32.909Z,102263.41
2023-09-26T02:36:20.153Z,102255.75
2023-09-26T02:41:07.279Z,102264.59
2023-09-26T02:45:57.334Z,102205.41
2023-09-26T02:50:44.726Z,102243.75
2023-09-26T02:55:32.156Z,102256.16
2023-09-26T03:00:20.049Z,102254.44
2023-09-26T03:05:10.901Z,102254.66
2023-09-26T03:09:58.318Z,102252.06
2023-09-26T03:14:45.542Z,102217.06
2023-09-26T03:19:33.057Z,102197.28
2023-09-26T03:24:23.066Z,102139.00
2023-09-26T03:29:10.885Z,102218.91
2023-09-26T03:33:58.835Z,102162.03
2023-09-26T03:38:47.712Z,102190.78
2023-09-26T03:43:37.804Z,102059.44
2023-09-26T03:48:28.208Z,102106.53
2023-09-26T03:53:15.655Z,102205.19
2023-09-26T03:58:03.468Z,102124.03
2023-09-26T04:02:53.503Z,102183.47
2023-09-26T04:07:40.951Z,102181.00
2023-09-26T04:12:28.268Z,102199.03
2023-09-26T04:17:15.377Z,102162.94
2023-09-26T04:22:05.190Z,102154.38
2023-09-26T04:26:52.534Z,102193.50
2023-09-26T04:31:40.045Z,102172.84
2023-09-26T04:36:27.377Z,102133.72
2023-09-26T04:41:17.276Z,102174.41
2023-09-26T04:46:20.322Z,102193.63
2023-09-26T04:51:08.830Z,102137.41
2023-09-26T04:55:55.969Z,102155.88
2023-09-26T05:00:45.699Z,102189.91
2023-09-26T05:05:32.916Z,102192.47
2023-09-26T05:10:20.547Z,102155.53
2023-09-26T05:15:10.123Z,102180.47
2023-09-26T05:20:00.091Z,102158.78
2023-09-26T05:24:47.322Z,102154.25
2023-09-26T05:29:34.534Z,102166.56
2023-09-26T05:34:21.723Z,102096.75
2023-09-26T05:39:11.587Z,102173.25
2023-09-26T05:43:58.872Z,102114.81
2023-09-26T05:48:46.021Z,102112.31
2023-09-26T05:53:33.326Z,102162.88
2023-09-26T05:58:23.234Z,102181.47
2023-09-26T06:03:10.558Z,102186.66
2023-09-26T06:07:57.937Z,102146.69
2023-09-26T06:12:45.090Z,102151.97
2023-09-26T06:17:38.392Z,102081.09
2023-09-26T06:22:25.546Z,102190.38
2023-09-26T06:27:12.935Z,102184.75
2023-09-26T06:36:51.142Z,102165.00
2023-09-26T06:41:38.537Z,102118.88
2023-09-26T06:46:26.012Z,102160.91
2023-09-26T06:51:13.245Z,102170.72
2023-09-26T06:56:05.367Z,102049.13
2023-09-26T07:00:52.700Z,102008.88
2023-09-26T07:05:39.951Z,102164.28
2023-09-26T07:10:27.447Z,102056.38
2023-09-26T07:15:17.923Z,102044.94
2023-09-26T07:20:06.110Z,102132.94
2023-09-26T07:24:53.524Z,102137.91
2023-09-26T07:29:40.881Z,102105.28
2023-09-26T07:34:31.148Z,102068.38
2023-09-26T07:39:18.350Z,102168.94
2023-09-26T07:44:06.088Z,102163.50
2023-09-26T07:48:53.318Z,102067.69
2023-09-26T07:53:43.385Z,102171.03
2023-09-26T07:58:31.016Z,102154.59
2023-09-26T08:03:18.208Z,102166.38
2023-09-26T08:08:08.165Z,102156.00
2023-09-26T08:12:58.440Z,102159.59
2023-09-26T08:17:45.644Z,102074.00
2023-09-26T08:22:32.942Z,102165.47
2023-09-26T08:27:20.180Z,102159.34
2023-09-26T08:32:10.940Z,102153.59
2023-09-26T08:36:58.461Z,102131.41
2023-09-26T08:41:48.081Z,102164.97
2023-09-26T08:46:36.412Z,102171.66
2023-09-26T08:51:27.094Z,102174.09
2023-09-26T08:56:14.365Z,102135.75
2023-09-26T09:01:02.216Z,102110.06
2023-09-26T09:05:49.460Z,102104.38
2023-09-26T09:10:52.256Z,102158.53
2023-09-26T09:15:39.684Z,102138.94
2023-09-26T09:20:32.335Z,102152.22
2023-09-26T09:25:30.162Z,102142.75
2023-09-26T09:30:19.985Z,102133.28
2023-09-26T09:35:09.747Z,102151.34
2023-09-26T09:39:57.079Z,102173.88
2023-09-26T09:44:44.571Z,102108.38
2023-09-26T09:49:41.525Z,102162.78
2023-09-26T09:54:34.353Z,102165.00
2023-09-26T09:59:25.899Z,102147.72
2023-09-26T10:04:14.668Z,102126.66
2023-09-26T10:09:05.529Z,102151.25
2023-09-26T10:13:52.968Z,102170.56
2023-09-26T10:18:41.907Z,102062.25
2023-09-26T10:23:29.411Z,102033.84
2023-09-26T10:28:21.585Z,102136.50
2023-09-26T10:33:40.171Z,102130.16
2023-09-26T10:38:29.997Z,102118.34
2023-09-26T10:48:16.834Z,102150.81
2023-09-26T10:53:05.004Z,102082.50
2023-09-26T10:57:52.183Z,102096.53
2023-09-26T11:02:44.066Z,102094.53
2023-09-26T11:07:31.481Z,102075.72
2023-09-26T11:12:18.928Z,102095.44
2023-09-26T11:17:06.107Z,102103.44
2023-09-26T11:21:56.460Z,102101.59
2023-09-26T11:26:44.950Z,102085.78
2023-09-26T11:31:32.395Z,102086.69
2023-09-26T11:36:19.765Z,102035.69
2023-09-26T11:41:11.450Z,102096.63
2023-09-26T11:46:02.419Z,102065.78
2023-09-26T11:50:50.289Z,102086.84
2023-09-26T11:55:37.907Z,102066.53
2023-09-26T12:00:28.321Z,102027.38
2023-09-26T12:05:20.394Z,102051.19
2023-09-26T12:10:09.505Z,102051.84
2023-09-26T12:15:16.978Z,102051.91
2023-09-26T12:20:08.948Z,102057.44
2023-09-26T12:24:57.707Z,102042.03
2023-09-26T12:29:44.838Z,101948.53
2023-09-26T12:34:32.075Z,102031.13
2023-09-26T12:39:21.856Z,102016.72
2023-09-26T12:44:11.399Z,102019.44
2023-09-26T12:48:58.980Z,102048.44
2023-09-26T12:53:46.260Z,102011.78
2023-09-26T12:58:38.364Z,102050.63
2023-09-26T13:03:25.658Z,102007.34
2023-09-26T13:08:13.012Z,102048.28
2023-09-26T13:13:00.286Z,102032.50
2023-09-26T13:17:50.223Z,102015.19
2023-09-26T13:22:37.888Z,102038.78
2023-09-26T13:27:26.220Z,102017.56
2023-09-26T13:32:13.905Z,102015.53
2023-09-26T13:37:04.220Z,101972.09
2023-09-26T13:41:51.478Z,102028.38
2023-09-26T13:46:38.785Z,102021.50
2023-09-26T13:51:26.030Z,102032.97
2023-09-26T13:56:16.573Z,101968.72
2023-09-26T14:01:03.896Z,102037.31
2023-09-26T14:05:51.398Z,101991.75
2023-09-26T14:10:38.736Z,101986.91
2023-09-26T14:15:28.490Z,102016.25
2023-09-26T14:20:16.005Z,101946.22
2023-09-26T14:25:03.278Z,101955.00
2023-09-26T14:29:50.394Z,102011.03
2023-09-26T14:34:40.230Z,101944.75
2023-09-26T14:39:27.567Z,101967.69
2023-09-26T14:44:17.492Z,101980.91
2023-09-26T14:49:06.882Z,101942.84
2023-09-26T14:53:56.736Z,101975.41
2023-09-26T14:58:44.084Z,101951.69
2023-09-26T15:03:36.880Z,101976.19
2023-09-26T15:08:24.669Z,101985.16
2023-09-26T15:13:15.026Z,102002.16
2023-09-26T15:18:02.370Z,101974.03
2023-09-26T15:22:50.968Z,102008.16
2023-09-26T15:27:38.171Z,101978.53
2023-09-26T15:32:28.073Z,101979.88
2023-09-26T15:37:15.486Z,101991.47
2023-09-26T15:42:02.728Z,101961.38
2023-09-26T15:46:50.126Z,101952.31
2023-09-26T15:51:39.989Z,101970.22
2023-09-26T15:56:27.132Z,101929.25
2023-09-26T16:01:14.667Z,101979.38
2023-09-26T16:06:02.000Z,101946.81
2023-09-26T16:10:51.825Z,101961.13
2023-09-26T16:15:39.252Z,101944.16
2023-09-26T16:20:26.712Z,101937.22
2023-09-26T16:25:14.060Z,101905.69
2023-09-26T16:30:07.382Z,101966.53
2023-09-26T16:34:55.405Z,101957.66
2023-09-26T16:39:42.624Z,101970.28
2023-09-26T16:44:29.877Z,101859.41
2023-09-26T16:49:21.237Z,101970.44
2023-09-26T16:54:08.487Z,101956.97
2023-09-26T16:58:55.965Z,101981.03
2023-09-26T17:03:43.237Z,101965.50
2023-09-26T17:08:33.253Z,101963.13
2023-09-26T17:13:20.436Z,101966.03
2023-09-26T17:18:07.789Z,101974.50
2023-09-26T17:22:55.019Z,101980.28
2023-09-26T17:27:44.923Z,101974.91
2023-09-26T17:32:32.160Z,101994.84
2023-09-26T17:37:19.305Z,101980.69
2023-09-26T17:42:06.454Z,101956.69
2023-09-26T17:46:56.321Z,101925.94
2023-09-26T17:51:43.781Z,101888.19
2023-09-26T17:56:31.100Z,101915.94
2023-09-26T18:01:18.474Z,101942.28
2023-09-26T18:06:08.467Z,101973.78
2023-09-26T18:10:55.630Z,102026.03
2023-09-26T18:15:43.944Z,102051.97
2023-09-26T18:20:31.196Z,102041.09
2023-09-26T18:25:25.766Z,102048.41
2023-09-26T18:30:13.613Z,102015.00
2023-09-26T18:35:00.778Z,102035.94
2023-09-26T18:39:47.912Z,102051.09
2023-09-26T18:45:07.200Z,102023.16
2023-09-26T18:49:54.396Z,102051.03
2023-09-26T18:54:43.195Z,102059.06
2023-09-26T18:59:30.508Z,102029.97
2023-09-26T19:04:20.347Z,101986.28
2023-09-26T19:09:07.568Z,101986.28
2023-09-26T19:13:54.790Z,101980.22
2023-09-26T19:18:58.187Z,102029.47
2023-09-26T19:23:51.989Z,102032.34
2023-09-26T19:28:39.387Z,102025.44
2023-09-26T19:33:26.890Z,102044.56
2023-09-26T19:38:14.822Z,102036.31
2023-09-26T19:43:07.501Z,102009.00
2023-09-26T19:47:55.260Z,102013.72
2023-09-26T19:52:48.070Z,101999.22
2023-09-26T19:57:35.277Z,102029.94
2023-09-26T20:02:25.184Z,102029.84
2023-09-26T20:07:12.537Z,102044.13
2023-09-26T20:11:59.846Z,102057.31
2023-09-26T20:16:47.187Z,102010.19
2023-09-26T20:21:37.231Z,102036.94
2023-09-26T20:26:24.803Z,102061.84
2023-09-26T20:31:15.845Z,102086.41
2023-09-26T20:36:03.278Z,102056.16
2023-09-26T20:41:02.206Z,102078.06
2023-09-26T20:45:49.475Z,102074.03
2023-09-26T20:50:36.714Z,102071.84
2023-09-26T20:55:23.981Z,101991.56
2023-09-26T21:00:15.008Z,102037.34
2023-09-26T21:05:02.307Z,102077.59
2023-09-26T21:09:49.658Z,102053.16
2023-09-26T21:14:37.636Z,102092.09
2023-09-26T21:19:27.497Z,102086.19
2023-09-26T21:24:14.719Z,102061.63
2023-09-26T21:29:02.082Z,102066.22
2023-09-26T21:33:49.399Z,102067.69
2023-09-26T21:38:39.226Z,102059.94
2023-09-26T21:43:26.522Z,102084.91
2023-09-26T21:48:13.807Z,102101.56
2023-09-26T21:53:01.073Z,102075.13
2023-09-26T21:57:51.112Z,102069.59
2023-09-26T22:02:38.333Z,102095.41
2023-09-26T22:07:25.532Z,102044.69
2023-09-26T22:12:13.828Z,102034.72
2023-09-26T22:17:03.686Z,102069.09
2023-09-26T22:21:50.998Z,102079.19
2023-09-26T22:26:38.288Z,102061.84
2023-09-26T22:31:25.528Z,102057.28
2023-09-26T22:36:16.230Z,102071.81
2023-09-26T22:41:03.490Z,102054.47
2023-09-26T22:45:50.699Z,102039.47
2023-09-26T22:50:37.975Z,102056.09
2023-09-26T22:55:27.931Z,102068.16
2023-09-26T23:00:15.729Z,102070.88
2023-09-26T23:05:03.001Z,102049.34
2023-09-26T23:09:50.167Z,102036.69
2023-09-26T23:14:40.088Z,102050.09
2023-09-26T23:19:27.290Z,102055.03
2023-09-26T23:24:14.423Z,102093.31
2023-09-26T23:29:01.707Z,102081.72
2023-09-26T23:33:51.443Z,102051.19
2023-09-26T23:38:38.735Z,102116.44
2023-09-26T23:43:25.998Z,102111.00
2023-09-26T23:48:13.244Z,102130.47
2023-09-26T23:53:03.362Z,102121.81
2023-09-26T23:57:50.704Z,102063.44
